Time;durP1;ratioP1;P1;durP2;ratioP2;P2;SDS_P1;SDS_P2;PMS_P1;PMS_P2;Temp;Humidity;BMP_temperature;BMP_pressure;BME280_temperature;BME280_humidity;BME280_pressure;Samples;Min_cycle;Max_cycle;Signal;HPM_P1;HPM_P2
2021/06/27 00:30:35;;;;;;;17.70;16.10;;;17.90;99.90;;;;;;5740729;25;20452;-84
2021/06/27 00:33:24;;;;;;;;;;;;;;;;;;;;;
2021/06/27 01:22:31;;;;;;;16.27;14.80;;;17.40;99.90;;;;;;5793582;24;20226;-86
2021/06/27 01:25:00;;;;;;;17.40;15.90;;;17.30;99.90;;;;;;6012954;23;20181;-86
2021/06/27 02:18:52;;;;;;;17.23;15.63;;;17.10;99.90;;;;;;5803142;24;20446;-86
2021/06/27 02:21:25;;;;;;;14.47;13.03;;;17.00;99.90;;;;;;6009910;23;20688;-86
2021/06/27 02:23:55;;;;;;;14.43;13.13;;;17.00;99.90;;;;;;6044728;23;20576;-87
2021/06/27 02:26:25;;;;;;;16.07;14.50;;;17.00;99.90;;;;;;6078962;23;20430;-87
2021/06/27 02:28:52;;;;;;;15.70;14.17;;;17.00;99.90;;;;;;6130898;23;20483;-86
2021/06/27 02:31:20;;;;;;;17.10;15.57;;;17.00;99.90;;;;;;6250130;23;21023;-87
2021/06/27 02:33:49;;;;;;;14.00;12.70;;;16.90;99.90;;;;;;6253284;23;20512;-86
2021/06/27 02:36:16;;;;;;;14.60;13.10;;;16.90;99.90;;;;;;6252967;23;20403;-86
2021/06/27 02:38:43;;;;;;;14.57;13.27;;;16.90;99.90;;;;;;6253177;23;20416;-86
2021/06/27 02:41:11;;;;;;;16.07;14.47;;;16.90;99.90;;;;;;6252428;23;20440;-87
2021/06/27 02:43:39;;;;;;;17.13;15.50;;;16.90;99.90;;;;;;6252597;23;20405;-86
2021/06/27 02:46:07;;;;;;;15.00;13.60;;;16.80;99.90;;;;;;6252556;23;20415;-87
2021/06/27 02:48:37;;;;;;;16.00;14.50;;;16.80;99.90;;;;;;6252553;23;20503;-86
2021/06/27 02:51:06;;;;;;;16.47;14.87;;;16.90;99.90;;;;;;6253457;23;20424;-87
2021/06/27 02:53:33;;;;;;;15.27;13.83;;;16.80;99.90;;;;;;6252821;23;20742;-86
2021/06/27 02:56:09;;;;;;;15.73;14.33;;;16.80;99.90;;;;;;6251883;23;20388;-87
2021/06/27 02:58:38;;;;;;;16.00;14.60;;;16.80;99.90;;;;;;6252251;23;20384;-86
2021/06/27 03:01:05;;;;;;;15.70;14.20;;;16.80;99.90;;;;;;6252445;23;20731;-86
2021/06/27 03:03:32;;;;;;;15.70;14.30;;;16.80;99.90;;;;;;6252157;23;20407;-86
2021/06/27 03:06:01;;;;;;;15.40;13.87;;;16.80;99.90;;;;;;6252653;23;21092;-86
2021/06/27 03:08:38;;;;;;;16.53;14.87;;;16.80;99.90;;;;;;6252017;23;20405;-87
2021/06/27 03:11:06;;;;;;;14.33;13.00;;;16.80;99.90;;;;;;6252062;23;20478;-86
2021/06/27 03:13:49;;;;;;;;;;;;;;;;;;;;;
2021/06/27 03:26:10;;;;;;;13.07;11.77;;;16.90;99.90;;;;;;5632704;24;20430;-86
2021/06/27 03:28:54;;;;;;;;;;;;;;;;;;;;;
2021/06/27 05:05:09;;;;;;;;;;;;;;;;;;;;;
2021/06/27 05:33:44;;;;;;;;;;;;;;;;;;;;;
2021/06/27 05:43:12;;;;;;;8.90;8.20;;;19.30;99.90;;;;;;5803960;24;20420;-86
2021/06/27 05:45:43;;;;;;;8.87;8.17;;;19.30;99.90;;;;;;5956543;24;20415;-86
2021/06/27 05:48:14;;;;;;;8.37;7.57;;;19.40;99.90;;;;;;6093949;23;20432;-87
2021/06/27 08:56:56;;;;;;;5.70;5.30;;;24.60;99.20;;;;;;6005275;23;20490;-85
2021/06/27 08:59:24;;;;;;;6.63;6.17;;;24.60;99.20;;;;;;6143462;23;20900;-83
2021/06/27 09:02:04;;;;;;;6.17;5.70;;;24.70;99.80;;;;;;6220106;23;20768;-83
2021/06/27 09:12:02;;;;;;;5.00;4.60;;;25.00;98.50;;;;;;5893404;23;20478;-83
2021/06/27 09:14:32;;;;;;;5.90;5.40;;;25.10;96.50;;;;;;6072121;23;20450;-83
2021/06/27 09:17:22;;;;;;;5.43;5.00;;;25.10;96.80;;;;;;6215451;23;20414;-83
2021/06/27 09:20:05;;;;;;;5.07;4.77;;;25.20;96.30;;;;;;6213699;23;20413;-83
2021/06/27 09:22:34;;;;;;;5.00;4.70;;;25.20;97.10;;;;;;6222269;23;20704;-83
2021/06/27 09:25:25;;;;;;;4.97;4.67;;;25.40;98.10;;;;;;6222149;23;20501;-83
2021/06/27 09:28:15;;;;;;;5.00;4.70;;;25.40;95.80;;;;;;6222833;23;20401;-83
2021/06/27 09:30:45;;;;;;;4.60;4.30;;;25.50;96.60;;;;;;6211443;23;21037;-84
2021/06/27 09:33:14;;;;;;;5.20;4.80;;;25.60;96.10;;;;;;6221573;23;20460;-84
2021/06/27 09:35:52;;;;;;;4.80;4.50;;;25.70;96.70;;;;;;6222255;23;20956;-83
2021/06/27 09:38:35;;;;;;;5.33;4.93;;;25.80;95.70;;;;;;6233555;23;20400;-84
2021/06/27 09:41:04;;;;;;;5.27;4.87;;;25.90;96.10;;;;;;6216122;23;20451;-84
2021/06/27 09:43:35;;;;;;;5.20;4.87;;;26.00;95.90;;;;;;6221228;23;20480;-84
2021/06/27 09:46:14;;;;;;;4.67;4.37;;;26.10;96.20;;;;;;6221436;23;20473;-84
2021/06/27 09:48:51;;;;;;;5.53;5.13;;;26.20;95.90;;;;;;6222756;23;20835;-84
2021/06/27 09:51:21;;;;;;;5.20;4.50;;;26.30;94.90;;;;;;6223169;23;20460;-84
2021/06/27 09:53:50;;;;;;;4.77;4.47;;;26.40;95.50;;;;;;6222039;23;20430;-84
2021/06/27 09:56:17;;;;;;;4.90;4.60;;;26.50;93.90;;;;;;6222009;23;20464;-84
2021/06/27 09:58:58;;;;;;;4.90;4.60;;;26.70;94.60;;;;;;6222645;23;20827;-84
2021/06/27 10:01:26;;;;;;;4.17;3.97;;;26.80;93.60;;;;;;6223571;23;20729;-85
2021/06/27 10:03:57;;;;;;;4.20;3.90;;;26.90;93.60;;;;;;6223581;23;20406;-84
2021/06/27 11:57:19;;;;;;;2.60;2.50;;;36.30;55.30;;;;;;5843729;24;20440;-85
2021/06/27 12:00:06;;;;;;;3.33;3.13;;;36.70;51.50;;;;;;5892434;24;20445;-85
2021/06/27 13:20:37;;;;;;;2.33;2.23;;;42.40;35.90;;;;;;6073174;23;20771;-84
2021/06/27 13:27:17;;;;;;;2.50;2.40;;;42.60;36.30;;;;;;6047119;23;20445;-84
2021/06/27 13:30:24;;;;;;;2.50;2.40;;;42.60;34.40;;;;;;6065874;23;20418;-84
2021/06/27 13:33:16;;;;;;;2.83;2.73;;;42.80;35.30;;;;;;6160097;23;20452;-86
2021/06/27 14:07:04;;;;;;;3.43;3.20;;;41.70;34.40;;;;;;5733626;24;20437;-84
2021/06/27 14:09:33;;;;;;;2.77;2.67;;;41.10;33.80;;;;;;5911780;23;20406;-84
2021/06/27 14:12:00;;;;;;;3.20;3.00;;;40.60;34.20;;;;;;6111123;23;20432;-84
2021/06/27 14:14:26;;;;;;;3.40;3.30;;;40.40;36.30;;;;;;6218568;23;20398;-84
2021/06/27 14:16:53;;;;;;;3.10;2.90;;;40.50;36.50;;;;;;6220477;23;20412;-82
2021/06/27 14:19:20;;;;;;;3.60;3.40;;;40.80;35.90;;;;;;6219068;23;20413;-84
2021/06/27 14:21:49;;;;;;;2.87;2.67;;;41.30;36.60;;;;;;6218082;23;20429;-84
2021/06/27 14:24:17;;;;;;;2.80;2.70;;;41.70;35.80;;;;;;6217822;23;20419;-83
2021/06/27 14:26:44;;;;;;;2.70;2.60;;;42.30;34.70;;;;;;6219114;23;20416;-83
2021/06/27 14:29:11;;;;;;;3.17;2.97;;;42.80;32.80;;;;;;6218637;23;20413;-84
2021/06/27 14:31:38;;;;;;;3.60;3.40;;;43.20;33.50;;;;;;6216626;23;20437;-84
2021/06/27 14:34:05;;;;;;;3.70;3.50;;;43.40;33.40;;;;;;6217096;23;20413;-83
2021/06/27 14:36:32;;;;;;;3.33;3.17;;;43.50;33.00;;;;;;6217820;23;20452;-84
2021/06/27 14:38:58;;;;;;;3.03;2.93;;;43.50;31.60;;;;;;6219081;23;20420;-84
2021/06/27 14:41:29;;;;;;;3.40;3.20;;;43.60;32.20;;;;;;6216999;23;20429;-83
2021/06/27 14:43:57;;;;;;;3.07;2.87;;;43.60;32.30;;;;;;6216390;23;20401;-83
2021/06/27 14:46:24;;;;;;;2.10;2.00;;;43.60;32.40;;;;;;6216464;23;20905;-84
2021/06/27 14:48:51;;;;;;;3.90;3.70;;;43.20;31.10;;;;;;6216685;23;20433;-82
2021/06/27 14:51:18;;;;;;;3.20;2.90;;;42.80;32.50;;;;;;6217233;23;20429;-84
2021/06/27 14:53:45;;;;;;;2.67;2.57;;;42.50;33.20;;;;;;6217492;23;20413;-84
2021/06/27 14:56:12;;;;;;;2.83;2.67;;;42.20;33.10;;;;;;6218173;23;20447;-84
2021/06/27 14:58:42;;;;;;;3.33;3.13;;;41.80;33.70;;;;;;6218239;23;20417;-83
2021/06/27 15:01:11;;;;;;;3.07;2.97;;;41.30;34.40;;;;;;6218534;23;20813;-83
2021/06/27 15:03:39;;;;;;;4.30;4.10;;;40.80;34.40;;;;;;6219535;23;20413;-83
2021/06/27 15:06:06;;;;;;;3.57;3.20;;;40.20;36.20;;;;;;6219821;23;20464;-83
2021/06/27 15:08:33;;;;;;;3.60;3.40;;;39.70;36.80;;;;;;6220898;23;20412;-85
2021/06/27 15:11:00;;;;;;;4.00;3.80;;;39.00;37.00;;;;;;6221164;23;20433;-84
2021/06/27 15:13:27;;;;;;;4.27;3.60;;;38.30;37.90;;;;;;6220098;23;20480;-84
2021/06/27 15:15:57;;;;;;;4.30;4.10;;;37.60;38.00;;;;;;6221882;23;20444;-84
2021/06/27 15:18:24;;;;;;;3.20;3.00;;;36.80;38.30;;;;;;6222262;23;20422;-83
2021/06/27 15:20:51;;;;;;;3.77;3.57;;;36.10;40.30;;;;;;6220811;23;20417;-85
2021/06/27 15:23:18;;;;;;;4.37;4.07;;;35.50;41.40;;;;;;6221748;23;20424;-84
2021/06/27 15:25:45;;;;;;;3.90;3.60;;;35.00;42.00;;;;;;6221605;23;20405;-84
2021/06/27 15:28:16;;;;;;;3.80;3.60;;;34.50;43.40;;;;;;6223683;23;20733;-84
2021/06/27 15:30:43;;;;;;;4.20;3.90;;;34.00;43.70;;;;;;6223654;23;20434;-87
2021/06/27 15:33:13;;;;;;;3.83;3.63;;;33.60;45.00;;;;;;6224123;23;20429;-86
2021/06/27 15:35:40;;;;;;;4.10;3.80;;;33.30;45.80;;;;;;6222750;23;20447;-86
2021/06/27 15:38:07;;;;;;;3.97;3.77;;;33.10;47.00;;;;;;6223040;23;20450;-83
2021/06/27 15:40:34;;;;;;;3.70;3.50;;;32.90;46.80;;;;;;6223593;23;20413;-85
2021/06/27 15:43:01;;;;;;;4.30;4.00;;;32.70;47.10;;;;;;6221500;23;20443;-85
2021/06/27 15:45:28;;;;;;;3.87;3.67;;;32.60;47.70;;;;;;6222607;23;20722;-86
2021/06/27 15:47:55;;;;;;;3.63;3.43;;;32.40;48.40;;;;;;6223739;23;20423;-85
2021/06/27 15:50:23;;;;;;;3.33;3.13;;;32.30;48.50;;;;;;6223564;23;20420;-86
2021/06/27 15:52:51;;;;;;;3.93;3.63;;;32.30;49.30;;;;;;6222437;23;20431;-84
2021/06/27 15:55:18;;;;;;;5.10;4.70;;;32.10;48.70;;;;;;6222791;23;20443;-84
2021/06/27 15:57:45;;;;;;;3.60;3.20;;;32.00;49.10;;;;;;6222393;23;20415;-85
2021/06/27 16:00:13;;;;;;;3.73;3.50;;;31.90;49.80;;;;;;6224267;23;20438;-86
2021/06/27 16:02:40;;;;;;;3.80;3.50;;;31.70;49.80;;;;;;6224196;23;20418;-85
2021/06/27 16:05:10;;;;;;;3.50;3.30;;;31.60;50.50;;;;;;6223038;23;20415;-86
2021/06/27 16:07:38;;;;;;;3.97;3.77;;;31.50;50.50;;;;;;6221558;23;20413;-86
2021/06/27 16:10:05;;;;;;;4.07;3.77;;;31.40;50.80;;;;;;6222743;23;20734;-87
2021/06/27 16:12:32;;;;;;;3.80;3.60;;;31.30;51.10;;;;;;6222954;23;20441;-83
2021/06/27 16:15:01;;;;;;;3.97;3.67;;;31.20;51.90;;;;;;6224232;23;20439;-85
2021/06/27 16:17:28;;;;;;;4.43;4.03;;;31.10;51.40;;;;;;6222781;23;20422;-85
2021/06/27 16:19:56;;;;;;;3.20;3.00;;;31.10;51.80;;;;;;6223872;23;20421;-83
2021/06/27 16:22:23;;;;;;;4.20;4.00;;;31.00;52.10;;;;;;6224021;23;20434;-87
2021/06/27 16:24:51;;;;;;;3.30;3.10;;;30.90;51.60;;;;;;6224205;23;20413;-84
2021/06/27 16:27:18;;;;;;;3.80;3.60;;;30.70;52.50;;;;;;6224069;23;20414;-84
2021/06/27 16:29:45;;;;;;;3.83;3.50;;;30.50;52.30;;;;;;6223418;23;20516;-86
2021/06/27 16:32:12;;;;;;;4.80;4.40;;;30.40;52.50;;;;;;6224160;23;20430;-85
2021/06/27 16:34:39;;;;;;;3.83;3.63;;;30.20;52.70;;;;;;6225018;23;20408;-85
2021/06/27 16:37:07;;;;;;;3.90;3.70;;;30.10;53.10;;;;;;6223703;23;20448;-86
2021/06/27 16:39:34;;;;;;;3.97;3.77;;;29.90;54.10;;;;;;6222738;23;20523;-85
2021/06/27 16:42:04;;;;;;;4.23;3.93;;;29.80;55.20;;;;;;6224082;23;20999;-86
2021/06/27 16:44:31;;;;;;;3.80;3.57;;;29.80;56.10;;;;;;6223659;23;20418;-86
2021/06/27 16:46:58;;;;;;;3.27;3.07;;;29.70;56.30;;;;;;6224682;23;20413;-84
2021/06/27 16:49:25;;;;;;;3.73;3.53;;;29.70;56.90;;;;;;6224322;23;20417;-85
2021/06/27 16:51:52;;;;;;;3.37;3.20;;;29.60;58.50;;;;;;6222942;23;20428;-85
2021/06/27 16:54:18;;;;;;;3.83;3.53;;;29.50;56.90;;;;;;6223687;23;20420;-85
2021/06/27 16:56:45;;;;;;;4.30;4.00;;;29.50;57.20;;;;;;6224316;23;20454;-85
2021/06/27 16:59:13;;;;;;;4.20;3.90;;;29.40;56.60;;;;;;6223324;23;20405;-85
2021/06/27 17:01:40;;;;;;;4.13;3.93;;;29.30;57.00;;;;;;6224306;23;20432;-85
2021/06/27 17:04:07;;;;;;;3.60;3.40;;;29.30;57.20;;;;;;6224592;23;20899;-85
2021/06/27 17:06:34;;;;;;;4.17;3.87;;;29.30;57.40;;;;;;6225256;23;20410;-85
2021/06/27 17:09:06;;;;;;;3.93;3.63;;;29.20;57.90;;;;;;6225190;23;20492;-84
2021/06/27 17:11:34;;;;;;;3.93;3.63;;;29.10;57.90;;;;;;6222369;23;20535;-86
2021/06/27 17:14:01;;;;;;;3.77;3.57;;;29.00;58.00;;;;;;6221744;23;20414;-85
2021/06/27 17:16:30;;;;;;;3.83;3.63;;;28.90;58.00;;;;;;6223183;23;20500;-86
2021/06/27 17:18:57;;;;;;;4.20;3.90;;;28.90;58.30;;;;;;6226437;23;20429;-86
2021/06/27 17:21:25;;;;;;;4.87;4.57;;;28.70;58.70;;;;;;6225537;23;20532;-86
2021/06/27 17:24:00;;;;;;;4.50;4.20;;;28.60;59.50;;;;;;6224436;23;20412;-86
2021/06/27 17:26:31;;;;;;;3.63;3.43;;;28.60;60.30;;;;;;6223505;23;20390;-84
2021/06/27 17:29:00;;;;;;;4.90;4.60;;;28.40;59.80;;;;;;6225274;23;20388;-86
2021/06/27 17:31:28;;;;;;;3.73;3.50;;;28.30;60.40;;;;;;6226556;23;20432;-85
2021/06/27 17:33:55;;;;;;;3.77;3.57;;;28.20;61.00;;;;;;6226274;23;20485;-85
2021/06/27 17:36:22;;;;;;;3.80;3.60;;;28.20;60.80;;;;;;6226646;23;20519;-86
2021/06/27 17:38:49;;;;;;;4.37;4.17;;;28.10;60.10;;;;;;6226884;23;20413;-85
2021/06/27 17:41:16;;;;;;;4.43;4.03;;;28.10;60.50;;;;;;6225641;23;20427;-86
2021/06/27 17:43:43;;;;;;;3.73;3.53;;;28.00;60.40;;;;;;6225712;23;20417;-85
2021/06/27 17:46:11;;;;;;;4.90;4.43;;;28.00;60.30;;;;;;6225254;23;20410;-85
2021/06/27 17:48:39;;;;;;;4.30;4.00;;;28.00;61.20;;;;;;6225240;23;20421;-84
2021/06/27 17:51:06;;;;;;;4.33;4.03;;;28.00;61.90;;;;;;6223907;23;20932;-85
2021/06/27 17:53:33;;;;;;;4.30;4.10;;;27.90;61.10;;;;;;6223159;23;20759;-85
2021/06/27 17:58:52;;;;;;;4.90;4.60;;;27.80;61.10;;;;;;6164823;23;20406;-84
2021/06/27 18:01:19;;;;;;;3.47;3.27;;;27.70;61.70;;;;;;6236331;23;20458;-84
2021/06/27 18:03:48;;;;;;;6.30;4.83;;;27.70;63.00;;;;;;6228376;23;20412;-83
2021/06/27 18:06:15;;;;;;;4.33;4.03;;;27.70;63.80;;;;;;6225136;23;20779;-84
2021/06/27 18:08:42;;;;;;;4.33;4.03;;;27.60;62.20;;;;;;6225359;23;20417;-84
2021/06/27 18:11:09;;;;;;;4.47;4.17;;;27.60;62.60;;;;;;6224818;23;20425;-86
2021/06/27 18:13:36;;;;;;;4.27;3.97;;;27.70;64.00;;;;;;6224959;23;20408;-84
2021/06/27 18:16:04;;;;;;;4.17;3.77;;;27.70;64.40;;;;;;6225797;23;20496;-85
2021/06/27 18:18:31;;;;;;;4.50;4.10;;;27.70;64.20;;;;;;6225623;23;20426;-85
2021/06/27 18:21:00;;;;;;;4.20;4.00;;;27.70;65.10;;;;;;6224845;23;20426;-83
2021/06/27 18:23:29;;;;;;;4.53;4.23;;;27.60;64.50;;;;;;6224061;23;20496;-84
2021/06/27 18:25:55;;;;;;;4.67;4.27;;;27.60;64.70;;;;;;6225075;23;20463;-86
2021/06/27 18:28:22;;;;;;;4.23;3.90;;;27.50;65.60;;;;;;6224535;23;20440;-85
2021/06/27 18:30:51;;;;;;;4.13;3.93;;;27.50;64.50;;;;;;6225096;23;20833;-86
2021/06/27 18:33:20;;;;;;;4.90;4.60;;;27.40;64.70;;;;;;6223630;23;20412;-83
2021/06/27 18:35:48;;;;;;;4.23;3.90;;;27.40;64.90;;;;;;6223414;23;20412;-84
2021/06/27 18:38:16;;;;;;;3.97;3.73;;;27.30;65.00;;;;;;6224714;23;20914;-84
2021/06/27 18:40:44;;;;;;;4.53;4.23;;;27.20;64.40;;;;;;6225165;23;20437;-85
2021/06/27 18:43:11;;;;;;;5.50;5.10;;;27.20;64.90;;;;;;6224308;23;20412;-85
2021/06/27 18:45:38;;;;;;;4.87;4.37;;;27.10;65.10;;;;;;6224388;23;20912;-85
2021/06/27 18:48:06;;;;;;;4.30;4.00;;;27.00;65.30;;;;;;6224014;23;20419;-85
2021/06/27 18:50:33;;;;;;;5.90;5.30;;;26.90;66.10;;;;;;6223608;23;20409;-85
2021/06/27 18:53:01;;;;;;;4.47;4.17;;;26.80;66.20;;;;;;6223902;23;20408;-86
2021/06/27 18:55:30;;;;;;;4.37;4.07;;;26.70;66.40;;;;;;6224396;23;20920;-85
2021/06/27 18:57:56;;;;;;;4.70;4.40;;;26.60;67.70;;;;;;6224168;23;20523;-85
2021/06/27 19:00:24;;;;;;;5.50;5.10;;;26.50;69.20;;;;;;6223387;23;20413;-84
2021/06/27 19:02:51;;;;;;;4.00;3.70;;;26.30;69.90;;;;;;6223918;23;20404;-84
2021/06/27 19:05:18;;;;;;;4.63;4.23;;;26.30;70.10;;;;;;6224508;23;20415;-84
2021/06/27 19:07:45;;;;;;;4.30;4.00;;;26.20;70.70;;;;;;6224308;23;20419;-83
2021/06/27 19:10:15;;;;;;;5.20;4.80;;;26.20;70.10;;;;;;6224172;23;20420;-85
2021/06/27 19:12:43;;;;;;;5.33;4.40;;;26.10;69.90;;;;;;6225403;23;20420;-86
2021/06/27 19:15:16;;;;;;;4.60;4.20;;;26.00;70.30;;;;;;6224932;23;20915;-85
2021/06/27 19:17:44;;;;;;;5.10;4.70;;;25.90;70.40;;;;;;6224437;23;20454;-85
2021/06/27 19:20:13;;;;;;;6.97;4.97;;;25.90;70.50;;;;;;6223717;23;20422;-84
2021/06/27 19:22:40;;;;;;;6.10;4.70;;;25.90;71.60;;;;;;6224291;23;20986;-84
2021/06/27 19:25:09;;;;;;;6.17;5.77;;;25.80;71.50;;;;;;6222798;23;20416;-85
2021/06/27 19:27:37;;;;;;;4.80;4.50;;;25.70;71.10;;;;;;6223470;23;20409;-86
2021/06/27 19:30:07;;;;;;;5.23;4.73;;;25.60;71.50;;;;;;6224503;23;20473;-84
2021/06/27 19:32:33;;;;;;;5.03;4.63;;;25.50;71.80;;;;;;6223826;23;20425;-85
2021/06/27 19:35:00;;;;;;;5.63;5.20;;;25.40;72.50;;;;;;6223975;23;20422;-85
2021/06/27 19:37:27;;;;;;;5.20;4.80;;;25.40;72.60;;;;;;6223708;23;20451;-82
2021/06/27 19:39:54;;;;;;;6.90;6.37;;;25.40;73.20;;;;;;6222399;23;20879;-85
2021/06/27 19:42:21;;;;;;;5.20;4.80;;;25.40;74.40;;;;;;6222213;23;20430;-85
2021/06/27 19:44:47;;;;;;;5.93;5.50;;;25.40;75.40;;;;;;6222132;23;20469;-82
2021/06/27 19:47:16;;;;;;;5.53;5.07;;;25.40;76.40;;;;;;6222474;23;20407;-85
2021/06/27 19:49:42;;;;;;;5.10;4.80;;;25.40;77.50;;;;;;6222667;23;20411;-84
2021/06/27 19:52:09;;;;;;;5.47;5.07;;;25.30;78.20;;;;;;6221894;23;20431;-87
2021/06/27 19:54:36;;;;;;;5.47;5.07;;;25.30;78.50;;;;;;6223937;23;20418;-84
2021/06/27 19:57:04;;;;;;;5.10;4.80;;;25.30;78.50;;;;;;6221711;23;20564;-84
2021/06/27 19:59:40;;;;;;;4.93;4.53;;;25.30;78.50;;;;;;6221356;23;20502;-86
2021/06/27 20:02:07;;;;;;;4.50;4.20;;;25.20;78.60;;;;;;6219783;23;20944;-86
2021/06/27 20:04:35;;;;;;;4.83;4.53;;;25.30;78.90;;;;;;6217058;23;20415;-81
2021/06/27 20:07:02;;;;;;;5.47;4.97;;;25.20;79.60;;;;;;6218600;23;20407;-85
2021/06/27 20:09:30;;;;;;;7.03;5.10;;;25.20;81.50;;;;;;6217675;23;20416;-83
2021/06/27 20:12:03;;;;;;;6.20;5.37;;;25.20;85.80;;;;;;6217076;23;20434;-83
2021/06/27 20:14:30;;;;;;;11.13;5.03;;;25.20;89.80;;;;;;6216924;23;20934;-84
2021/06/27 20:16:57;;;;;;;7.67;6.03;;;25.10;90.60;;;;;;6218125;23;20456;-84
2021/06/27 20:19:26;;;;;;;6.77;6.30;;;25.00;91.90;;;;;;6218278;23;20493;-84
2021/06/27 20:21:55;;;;;;;7.10;5.80;;;24.90;93.20;;;;;;6218323;23;20438;-85
2021/06/27 20:24:22;;;;;;;6.73;6.23;;;24.90;95.00;;;;;;6218263;23;20409;-82
2021/06/27 20:26:49;;;;;;;6.40;6.00;;;24.80;96.30;;;;;;6219086;23;20405;-83
2021/06/27 20:29:16;;;;;;;7.00;6.50;;;24.70;97.80;;;;;;6217995;23;20417;-82
2021/06/27 20:31:43;;;;;;;7.00;6.43;;;24.60;99.00;;;;;;6217793;23;20429;-84
2021/06/27 20:34:11;;;;;;;5.63;5.03;;;24.50;99.30;;;;;;6218156;23;20415;-83
2021/06/27 20:36:38;;;;;;;7.03;6.50;;;24.50;99.90;;;;;;6217568;23;20440;-83
2021/06/27 20:39:09;;;;;;;6.00;5.40;;;24.30;99.80;;;;;;6217477;23;20413;-84
2021/06/27 20:41:40;;;;;;;5.77;5.40;;;24.20;99.90;;;;;;6216928;23;20429;-86
2021/06/27 20:44:07;;;;;;;5.50;5.10;;;24.20;99.90;;;;;;6217831;23;20471;-84
2021/06/27 20:46:36;;;;;;;6.00;5.60;;;24.10;99.90;;;;;;6217565;23;20409;-84
2021/06/27 20:49:04;;;;;;;8.50;7.70;;;24.00;99.90;;;;;;6218310;23;20412;-82
2021/06/27 20:51:32;;;;;;;7.37;6.63;;;23.90;99.90;;;;;;6217726;23;20720;-84
2021/06/27 20:54:00;;;;;;;7.37;6.87;;;23.80;99.90;;;;;;6218621;23;20749;-84
2021/06/27 20:56:34;;;;;;;7.73;7.13;;;23.70;99.90;;;;;;6218036;23;20405;-84
2021/06/27 20:59:01;;;;;;;6.90;6.40;;;23.60;99.90;;;;;;6218208;23;20428;-83
2021/06/27 21:01:33;;;;;;;7.77;7.10;;;23.60;99.90;;;;;;6217533;23;20429;-84
2021/06/27 21:04:00;;;;;;;6.33;5.93;;;23.50;99.90;;;;;;6217565;23;20400;-84
2021/06/27 21:06:27;;;;;;;6.13;5.73;;;23.40;99.90;;;;;;6220950;23;20433;-84
2021/06/27 21:08:53;;;;;;;7.50;7.00;;;23.30;99.90;;;;;;6218248;23;20418;-84
2021/06/27 21:11:24;;;;;;;6.50;6.00;;;23.30;99.90;;;;;;6217299;23;20440;-84
2021/06/27 21:13:56;;;;;;;6.70;6.30;;;23.20;99.90;;;;;;6217249;23;20909;-85
2021/06/27 21:16:24;;;;;;;6.97;6.40;;;23.20;99.90;;;;;;6216870;23;20431;-84
2021/06/27 21:18:51;;;;;;;6.40;5.90;;;23.10;99.90;;;;;;6217542;23;20860;-82
2021/06/27 21:21:18;;;;;;;7.97;7.27;;;23.10;99.90;;;;;;6216786;23;20436;-84
2021/06/27 21:23:44;;;;;;;8.20;7.57;;;23.10;99.90;;;;;;6216395;23;20415;-84
2021/06/27 21:26:11;;;;;;;8.00;7.40;;;23.00;99.90;;;;;;6218177;23;20946;-84
2021/06/27 21:28:41;;;;;;;8.30;7.60;;;23.00;99.90;;;;;;6221925;23;20418;-82
2021/06/27 21:31:09;;;;;;;8.03;7.23;;;22.90;99.90;;;;;;6221970;23;20432;-83
2021/06/27 21:33:39;;;;;;;8.50;7.80;;;22.90;99.90;;;;;;6216879;23;20419;-83
2021/06/27 21:36:06;;;;;;;6.30;5.90;;;22.90;99.90;;;;;;6216623;23;20420;-84
2021/06/27 21:38:32;;;;;;;7.23;6.63;;;22.80;99.90;;;;;;6218023;23;20515;-83
2021/06/27 21:40:59;;;;;;;7.63;7.10;;;22.80;99.90;;;;;;6218372;23;20429;-85
2021/06/27 21:43:29;;;;;;;7.10;6.60;;;22.70;99.90;;;;;;6218279;23;20752;-84
2021/06/27 21:45:56;;;;;;;6.30;5.90;;;22.70;99.90;;;;;;6218812;23;20420;-83
2021/06/27 21:48:27;;;;;;;8.77;8.07;;;22.60;99.90;;;;;;6217421;23;20736;-85
2021/06/27 21:50:54;;;;;;;7.93;7.30;;;22.60;99.90;;;;;;6219007;23;20471;-83
2021/06/27 21:53:27;;;;;;;7.83;7.13;;;22.50;99.90;;;;;;6217356;23;20414;-85
2021/06/27 21:55:54;;;;;;;7.90;7.20;;;22.50;99.90;;;;;;6217752;23;20423;-83
2021/06/27 21:58:21;;;;;;;7.27;6.70;;;22.40;99.90;;;;;;6218394;23;20776;-83
2021/06/27 22:00:48;;;;;;;7.87;7.10;;;22.30;99.90;;;;;;6216944;23;20513;-86
2021/06/27 22:03:17;;;;;;;6.87;6.37;;;22.30;99.90;;;;;;6217868;23;20792;-84
2021/06/27 22:05:45;;;;;;;7.13;6.63;;;22.20;99.90;;;;;;6218102;23;20457;-85
2021/06/27 22:08:14;;;;;;;7.10;6.60;;;21.90;99.90;;;;;;6217408;23;20736;-84
2021/06/27 22:10:41;;;;;;;6.13;5.67;;;21.90;99.90;;;;;;6216438;23;20434;-84
2021/06/27 22:13:07;;;;;;;6.60;6.10;;;21.90;99.90;;;;;;6218702;23;20413;-85
2021/06/27 22:15:34;;;;;;;5.80;5.40;;;21.90;99.90;;;;;;6219072;23;20410;-84
2021/06/27 22:18:02;;;;;;;6.30;5.80;;;21.90;99.90;;;;;;6219464;23;20448;-85
2021/06/27 22:20:29;;;;;;;6.47;6.00;;;21.90;99.90;;;;;;6220309;23;20418;-85
2021/06/27 22:22:57;;;;;;;7.00;6.50;;;21.90;99.90;;;;;;6219285;23;20412;-86
2021/06/27 22:25:24;;;;;;;6.40;5.87;;;21.90;99.90;;;;;;6221350;23;20413;-87
2021/06/27 22:27:50;;;;;;;7.90;6.40;;;21.90;99.90;;;;;;6221866;23;20414;-87
2021/06/27 22:30:18;;;;;;;7.10;6.50;;;21.90;99.90;;;;;;6219430;23;20901;-87
2021/06/27 22:32:47;;;;;;;6.43;6.03;;;21.90;99.90;;;;;;6221448;23;20795;-86
2021/06/27 22:35:16;;;;;;;6.33;5.70;;;21.90;99.90;;;;;;6218162;23;20428;-86
2021/06/27 22:37:43;;;;;;;6.73;6.23;;;21.90;99.90;;;;;;6217986;23;20437;-86
2021/06/27 22:40:13;;;;;;;7.20;6.70;;;21.90;99.90;;;;;;6218706;23;20411;-86
2021/06/27 22:42:43;;;;;;;5.93;5.50;;;21.90;99.90;;;;;;6216966;23;20418;-86
2021/06/27 22:45:12;;;;;;;6.73;6.23;;;21.90;99.90;;;;;;6218075;23;20412;-87
2021/06/27 22:47:39;;;;;;;6.33;5.83;;;21.90;99.90;;;;;;6217983;23;20929;-87
2021/06/27 22:50:09;;;;;;;6.73;6.23;;;21.80;99.90;;;;;;6217826;23;20424;-86
2021/06/27 22:52:35;;;;;;;5.87;5.53;;;21.50;99.90;;;;;;6217677;23;20751;-86
2021/06/27 22:55:04;;;;;;;4.27;3.93;;;21.40;99.90;;;;;;6217540;23;20419;-86
2021/06/27 22:57:32;;;;;;;5.97;5.57;;;21.30;99.90;;;;;;6217355;23;20445;-87
2021/06/27 22:59:59;;;;;;;4.80;4.50;;;21.30;99.90;;;;;;6217831;23;20426;-87
2021/06/27 23:02:26;;;;;;;4.47;4.07;;;21.30;99.90;;;;;;6216519;23;20438;-86
2021/06/27 23:04:53;;;;;;;3.63;3.43;;;21.20;99.90;;;;;;6217351;23;20402;-87
2021/06/27 23:07:20;;;;;;;4.30;4.00;;;21.20;99.90;;;;;;6217126;23;20415;-86
2021/06/27 23:09:47;;;;;;;3.70;3.50;;;21.20;99.90;;;;;;6217364;23;20399;-85
2021/06/27 23:12:13;;;;;;;3.03;2.83;;;21.20;99.90;;;;;;6216739;23;20472;-86
2021/06/27 23:14:41;;;;;;;3.57;3.37;;;21.20;99.90;;;;;;6217640;23;20416;-86
2021/06/27 23:17:10;;;;;;;2.97;2.77;;;21.20;99.90;;;;;;6217352;23;20428;-86
2021/06/27 23:19:37;;;;;;;3.17;2.97;;;21.20;99.90;;;;;;6217419;23;20445;-86
2021/06/27 23:22:04;;;;;;;3.17;2.97;;;21.10;99.90;;;;;;6217243;23;20437;-87
2021/06/27 23:24:31;;;;;;;3.20;2.70;;;21.10;99.90;;;;;;6219198;23;20400;-85
2021/06/27 23:26:57;;;;;;;2.80;2.60;;;20.80;99.90;;;;;;6218703;23;20406;-87
2021/06/27 23:29:24;;;;;;;3.10;2.90;;;20.60;99.90;;;;;;6221040;23;20895;-86
2021/06/27 23:31:54;;;;;;;3.20;3.00;;;20.40;99.90;;;;;;6220469;23;20443;-86
2021/06/27 23:34:20;;;;;;;3.03;2.83;;;20.10;99.90;;;;;;6219201;23;20931;-86
2021/06/27 23:36:48;;;;;;;3.50;3.30;;;19.90;99.90;;;;;;6218844;23;20408;-84
2021/06/27 23:39:15;;;;;;;3.90;3.60;;;19.60;99.90;;;;;;6218788;23;20974;-85
2021/06/27 23:41:41;;;;;;;2.90;2.70;;;19.50;99.90;;;;;;6217759;23;20443;-85
2021/06/27 23:44:08;;;;;;;3.30;3.10;;;19.40;99.90;;;;;;6219037;23;20415;-86
2021/06/27 23:46:35;;;;;;;4.00;3.30;;;19.20;99.90;;;;;;6220418;23;20470;-86
2021/06/27 23:49:03;;;;;;;3.50;3.30;;;19.10;99.90;;;;;;6222742;23;20404;-86
2021/06/27 23:51:31;;;;;;;4.80;4.40;;;19.00;99.90;;;;;;6220351;23;20970;-86
2021/06/27 23:53:58;;;;;;;4.20;3.80;;;19.00;99.90;;;;;;6219666;23;20410;-88
2021/06/27 23:56:27;;;;;;;4.47;4.10;;;18.90;99.90;;;;;;6220393;23;20416;-86
2021/06/27 23:58:55;;;;;;;4.17;3.87;;;18.90;99.90;;;;;;6221380;23;20446;-86
